sensor_id;sensor_type;location;lat;lon;timestamp;P1;durP1;ratioP1;P2;durP2;ratioP2
8857;SDS011;4465;50.904;4.696;2022-08-11T00:00:38;5.50;;;2.60;;
8857;SDS011;4465;50.904;4.696;2022-08-11T00:03:08;6.85;;;3.10;;
8857;SDS011;4465;50.904;4.696;2022-08-11T00:05:46;7.13;;;2.92;;
8857;SDS011;4465;50.904;4.696;2022-08-11T00:08:33;6.78;;;3.38;;
8857;SDS011;4465;50.904;4.696;2022-08-11T00:11:04;7.38;;;3.03;;
8857;SDS011;4465;50.904;4.696;2022-08-11T00:13:33;6.50;;;3.28;;
8857;SDS011;4465;50.904;4.696;2022-08-11T00:16:41;6.90;;;2.97;;
8857;SDS011;4465;50.904;4.696;2022-08-11T00:18:59;8.68;;;3.78;;
8857;SDS011;4465;50.904;4.696;2022-08-11T00:21:27;7.60;;;3.00;;
8857;SDS011;4465;50.904;4.696;2022-08-11T00:23:55;5.22;;;3.35;;
8857;SDS011;4465;50.904;4.696;2022-08-11T00:26:27;6.63;;;3.40;;
8857;SDS011;4465;50.904;4.696;2022-08-11T00:28:56;5.40;;;3.75;;
8857;SDS011;4465;50.904;4.696;2022-08-11T00:31:35;7.63;;;3.20;;
8857;SDS011;4465;50.904;4.696;2022-08-11T00:34:05;4.93;;;2.92;;
8857;SDS011;4465;50.904;4.696;2022-08-11T00:39:05;6.65;;;3.28;;
8857;SDS011;4465;50.904;4.696;2022-08-11T00:44:27;11.38;;;3.50;;
8857;SDS011;4465;50.904;4.696;2022-08-11T00:50:07;7.38;;;3.75;;
8857;SDS011;4465;50.904;4.696;2022-08-11T01:01:58;7.53;;;3.97;;
8857;SDS011;4465;50.904;4.696;2022-08-11T01:04:45;8.52;;;3.78;;
8857;SDS011;4465;50.904;4.696;2022-08-11T01:22:01;6.80;;;4.00;;
8857;SDS011;4465;50.904;4.696;2022-08-11T01:24:55;5.68;;;3.45;;
8857;SDS011;4465;50.904;4.696;2022-08-11T01:27:53;5.65;;;3.55;;
8857;SDS011;4465;50.904;4.696;2022-08-11T01:30:54;6.45;;;3.92;;
8857;SDS011;4465;50.904;4.696;2022-08-11T01:36:54;6.53;;;3.50;;
8857;SDS011;4465;50.904;4.696;2022-08-11T01:40:09;6.35;;;3.75;;
8857;SDS011;4465;50.904;4.696;2022-08-11T01:46:00;5.50;;;3.35;;
8857;SDS011;4465;50.904;4.696;2022-08-11T01:51:14;8.27;;;3.60;;
8857;SDS011;4465;50.904;4.696;2022-08-11T01:53:52;11.20;;;4.38;;
8857;SDS011;4465;50.904;4.696;2022-08-11T01:59:34;6.07;;;3.40;;
8857;SDS011;4465;50.904;4.696;2022-08-11T02:10:56;6.55;;;3.20;;
8857;SDS011;4465;50.904;4.696;2022-08-11T02:13:55;8.18;;;3.30;;
8857;SDS011;4465;50.904;4.696;2022-08-11T02:19:32;5.50;;;3.28;;
8857;SDS011;4465;50.904;4.696;2022-08-11T02:23:21;5.68;;;3.20;;
8857;SDS011;4465;50.904;4.696;2022-08-11T02:32:06;4.88;;;3.50;;
8857;SDS011;4465;50.904;4.696;2022-08-11T02:35:15;5.95;;;3.33;;
8857;SDS011;4465;50.904;4.696;2022-08-11T02:40:47;5.80;;;3.40;;
8857;SDS011;4465;50.904;4.696;2022-08-11T02:43:29;6.65;;;3.35;;
8857;SDS011;4465;50.904;4.696;2022-08-11T02:46:28;6.80;;;3.63;;
8857;SDS011;4465;50.904;4.696;2022-08-11T02:49:10;9.38;;;3.78;;
8857;SDS011;4465;50.904;4.696;2022-08-11T03:03:28;5.63;;;3.55;;
8857;SDS011;4465;50.904;4.696;2022-08-11T03:06:07;6.10;;;4.03;;
8857;SDS011;4465;50.904;4.696;2022-08-11T03:11:49;7.60;;;3.20;;
8857;SDS011;4465;50.904;4.696;2022-08-11T03:14:40;7.25;;;3.60;;
8857;SDS011;4465;50.904;4.696;2022-08-11T03:20:09;8.15;;;4.10;;
8857;SDS011;4465;50.904;4.696;2022-08-11T03:23:46;7.85;;;3.65;;
8857;SDS011;4465;50.904;4.696;2022-08-11T03:28:31;8.45;;;3.78;;
8857;SDS011;4465;50.904;4.696;2022-08-11T03:34:08;7.93;;;4.40;;
8857;SDS011;4465;50.904;4.696;2022-08-11T03:42:17;11.00;;;4.40;;
8857;SDS011;4465;50.904;4.696;2022-08-11T03:50:54;6.75;;;4.43;;
8857;SDS011;4465;50.904;4.696;2022-08-11T04:15:49;8.43;;;4.47;;
8857;SDS011;4465;50.904;4.696;2022-08-11T04:22:04;9.93;;;4.85;;
8857;SDS011;4465;50.904;4.696;2022-08-11T04:27:26;13.90;;;4.72;;
8857;SDS011;4465;50.904;4.696;2022-08-11T04:30:07;8.23;;;4.70;;
8857;SDS011;4465;50.904;4.696;2022-08-11T04:38:37;6.32;;;4.47;;
8857;SDS011;4465;50.904;4.696;2022-08-11T04:45:25;9.57;;;4.75;;
8857;SDS011;4465;50.904;4.696;2022-08-11T04:51:00;9.02;;;5.10;;
8857;SDS011;4465;50.904;4.696;2022-08-11T04:57:15;12.25;;;5.82;;
8857;SDS011;4465;50.904;4.696;2022-08-11T05:00:09;9.50;;;4.70;;
8857;SDS011;4465;50.904;4.696;2022-08-11T05:12:18;10.38;;;5.50;;
8857;SDS011;4465;50.904;4.696;2022-08-11T05:15:15;9.45;;;5.28;;
8857;SDS011;4465;50.904;4.696;2022-08-11T05:18:06;8.45;;;5.25;;
8857;SDS011;4465;50.904;4.696;2022-08-11T05:20:57;15.48;;;5.28;;
8857;SDS011;4465;50.904;4.696;2022-08-11T05:23:55;8.13;;;4.97;;
8857;SDS011;4465;50.904;4.696;2022-08-11T05:26:46;8.98;;;5.43;;
8857;SDS011;4465;50.904;4.696;2022-08-11T05:29:40;9.25;;;5.30;;
8857;SDS011;4465;50.904;4.696;2022-08-11T05:32:29;9.63;;;5.38;;
8857;SDS011;4465;50.904;4.696;2022-08-11T05:35:23;8.52;;;5.07;;
8857;SDS011;4465;50.904;4.696;2022-08-11T05:37:58;9.93;;;4.65;;
8857;SDS011;4465;50.904;4.696;2022-08-11T05:40:47;6.13;;;5.15;;
8857;SDS011;4465;50.904;4.696;2022-08-11T05:43:33;10.02;;;5.18;;
8857;SDS011;4465;50.904;4.696;2022-08-11T05:46:26;8.98;;;5.50;;
8857;SDS011;4465;50.904;4.696;2022-08-11T05:49:12;9.85;;;5.70;;
8857;SDS011;4465;50.904;4.696;2022-08-11T05:51:57;10.25;;;5.57;;
8857;SDS011;4465;50.904;4.696;2022-08-11T05:54:43;9.63;;;5.22;;
8857;SDS011;4465;50.904;4.696;2022-08-11T05:57:32;10.88;;;5.55;;
8857;SDS011;4465;50.904;4.696;2022-08-11T06:00:05;13.07;;;5.50;;
8857;SDS011;4465;50.904;4.696;2022-08-11T06:02:54;14.00;;;5.95;;
8857;SDS011;4465;50.904;4.696;2022-08-11T06:05:23;11.23;;;5.25;;
8857;SDS011;4465;50.904;4.696;2022-08-11T06:08:06;11.13;;;5.70;;
8857;SDS011;4465;50.904;4.696;2022-08-11T06:10:35;15.02;;;5.75;;
8857;SDS011;4465;50.904;4.696;2022-08-11T06:13:03;18.38;;;6.28;;
8857;SDS011;4465;50.904;4.696;2022-08-11T06:15:32;13.75;;;5.80;;
8857;SDS011;4465;50.904;4.696;2022-08-11T06:18:09;14.40;;;5.80;;
8857;SDS011;4465;50.904;4.696;2022-08-11T06:20:46;13.43;;;6.07;;
8857;SDS011;4465;50.904;4.696;2022-08-11T06:23:15;12.45;;;5.15;;
8857;SDS011;4465;50.904;4.696;2022-08-11T06:25:43;13.57;;;5.80;;
8857;SDS011;4465;50.904;4.696;2022-08-11T06:28:10;16.85;;;5.25;;
8857;SDS011;4465;50.904;4.696;2022-08-11T06:30:43;13.82;;;5.03;;
8857;SDS011;4465;50.904;4.696;2022-08-11T06:33:12;16.40;;;5.50;;
8857;SDS011;4465;50.904;4.696;2022-08-11T06:41:53;14.27;;;5.32;;
8857;SDS011;4465;50.904;4.696;2022-08-11T06:46:40;9.43;;;5.20;;
8857;SDS011;4465;50.904;4.696;2022-08-11T06:49:12;10.90;;;4.90;;
8857;SDS011;4465;50.904;4.696;2022-08-11T06:51:59;11.02;;;5.18;;
8857;SDS011;4465;50.904;4.696;2022-08-11T06:54:31;10.80;;;5.10;;
8857;SDS011;4465;50.904;4.696;2022-08-11T06:57:03;17.98;;;5.10;;
8857;SDS011;4465;50.904;4.696;2022-08-11T06:59:49;14.20;;;5.57;;
8857;SDS011;4465;50.904;4.696;2022-08-11T07:02:51;10.13;;;4.53;;
8857;SDS011;4465;50.904;4.696;2022-08-11T07:14:24;10.48;;;4.53;;
8857;SDS011;4465;50.904;4.696;2022-08-11T07:17:13;7.27;;;4.10;;
8857;SDS011;4465;50.904;4.696;2022-08-11T07:19:45;10.60;;;4.63;;
8857;SDS011;4465;50.904;4.696;2022-08-11T07:22:35;10.05;;;4.25;;
8857;SDS011;4465;50.904;4.696;2022-08-11T07:25:20;8.38;;;4.18;;
8857;SDS011;4465;50.904;4.696;2022-08-11T07:28:11;12.00;;;4.18;;
8857;SDS011;4465;50.904;4.696;2022-08-11T07:31:06;11.10;;;3.92;;
8857;SDS011;4465;50.904;4.696;2022-08-11T07:33:44;14.90;;;4.65;;
8857;SDS011;4465;50.904;4.696;2022-08-11T07:36:14;9.52;;;3.92;;
8857;SDS011;4465;50.904;4.696;2022-08-11T07:38:42;8.50;;;3.50;;
8857;SDS011;4465;50.904;4.696;2022-08-11T07:41:18;10.82;;;3.92;;
8857;SDS011;4465;50.904;4.696;2022-08-11T07:43:49;7.75;;;3.70;;
8857;SDS011;4465;50.904;4.696;2022-08-11T07:46:39;8.93;;;3.53;;
8857;SDS011;4465;50.904;4.696;2022-08-11T07:49:25;13.52;;;3.53;;
8857;SDS011;4465;50.904;4.696;2022-08-11T07:52:11;7.15;;;3.60;;
8857;SDS011;4465;50.904;4.696;2022-08-11T07:57:42;9.63;;;3.50;;
8857;SDS011;4465;50.904;4.696;2022-08-11T08:00:28;7.70;;;3.22;;
8857;SDS011;4465;50.904;4.696;2022-08-11T08:03:15;10.52;;;3.95;;
8857;SDS011;4465;50.904;4.696;2022-08-11T08:06:00;8.60;;;3.78;;
8857;SDS011;4465;50.904;4.696;2022-08-11T08:08:45;7.43;;;3.58;;
8857;SDS011;4465;50.904;4.696;2022-08-11T08:11:29;7.32;;;3.45;;
8857;SDS011;4465;50.904;4.696;2022-08-11T08:14:17;7.35;;;3.10;;
8857;SDS011;4465;50.904;4.696;2022-08-11T08:17:02;7.70;;;3.25;;
8857;SDS011;4465;50.904;4.696;2022-08-11T08:19:47;7.25;;;3.22;;
8857;SDS011;4465;50.904;4.696;2022-08-11T08:22:17;5.05;;;2.72;;
8857;SDS011;4465;50.904;4.696;2022-08-11T08:24:45;7.82;;;3.40;;
8857;SDS011;4465;50.904;4.696;2022-08-11T08:27:12;6.13;;;3.30;;
8857;SDS011;4465;50.904;4.696;2022-08-11T08:29:39;9.48;;;3.35;;
8857;SDS011;4465;50.904;4.696;2022-08-11T08:32:28;7.15;;;3.10;;
8857;SDS011;4465;50.904;4.696;2022-08-11T08:34:56;13.75;;;3.22;;
8857;SDS011;4465;50.904;4.696;2022-08-11T08:39:56;13.95;;;3.15;;
8857;SDS011;4465;50.904;4.696;2022-08-11T08:42:24;8.15;;;3.10;;
8857;SDS011;4465;50.904;4.696;2022-08-11T08:45:13;8.32;;;3.40;;
8857;SDS011;4465;50.904;4.696;2022-08-11T08:47:47;8.88;;;3.20;;
8857;SDS011;4465;50.904;4.696;2022-08-11T08:50:20;9.20;;;3.25;;
8857;SDS011;4465;50.904;4.696;2022-08-11T08:52:52;11.50;;;2.90;;
8857;SDS011;4465;50.904;4.696;2022-08-11T08:55:22;11.68;;;3.17;;
8857;SDS011;4465;50.904;4.696;2022-08-11T08:57:53;8.38;;;2.90;;
8857;SDS011;4465;50.904;4.696;2022-08-11T09:00:28;6.72;;;2.83;;
8857;SDS011;4465;50.904;4.696;2022-08-11T09:03:04;6.55;;;2.80;;
8857;SDS011;4465;50.904;4.696;2022-08-11T09:05:30;11.20;;;2.75;;
8857;SDS011;4465;50.904;4.696;2022-08-11T09:07:59;6.95;;;2.85;;
8857;SDS011;4465;50.904;4.696;2022-08-11T09:10:26;8.05;;;3.15;;
8857;SDS011;4465;50.904;4.696;2022-08-11T09:12:57;8.07;;;2.90;;
8857;SDS011;4465;50.904;4.696;2022-08-11T09:15:24;5.65;;;2.60;;
8857;SDS011;4465;50.904;4.696;2022-08-11T09:17:55;9.32;;;2.92;;
8857;SDS011;4465;50.904;4.696;2022-08-11T09:20:47;12.07;;;2.95;;
8857;SDS011;4465;50.904;4.696;2022-08-11T09:23:18;5.20;;;2.80;;
8857;SDS011;4465;50.904;4.696;2022-08-11T09:26:03;6.20;;;2.83;;
8857;SDS011;4465;50.904;4.696;2022-08-11T09:28:48;6.50;;;3.22;;
8857;SDS011;4465;50.904;4.696;2022-08-11T09:31:15;5.13;;;2.83;;
8857;SDS011;4465;50.904;4.696;2022-08-11T09:33:43;10.20;;;3.05;;
8857;SDS011;4465;50.904;4.696;2022-08-11T09:36:11;10.20;;;3.15;;
8857;SDS011;4465;50.904;4.696;2022-08-11T09:38:56;6.35;;;3.25;;
8857;SDS011;4465;50.904;4.696;2022-08-11T09:41:42;6.18;;;3.10;;
8857;SDS011;4465;50.904;4.696;2022-08-11T09:44:09;4.72;;;3.03;;
8857;SDS011;4465;50.904;4.696;2022-08-11T09:46:55;7.60;;;3.20;;
8857;SDS011;4465;50.904;4.696;2022-08-11T09:49:25;7.25;;;3.30;;
8857;SDS011;4465;50.904;4.696;2022-08-11T09:51:51;8.05;;;3.08;;
8857;SDS011;4465;50.904;4.696;2022-08-11T09:54:19;9.75;;;3.30;;
8857;SDS011;4465;50.904;4.696;2022-08-11T09:56:47;8.13;;;3.40;;
8857;SDS011;4465;50.904;4.696;2022-08-11T10:02:03;11.27;;;2.90;;
8857;SDS011;4465;50.904;4.696;2022-08-11T10:07:03;4.25;;;2.65;;
8857;SDS011;4465;50.904;4.696;2022-08-11T10:09:37;11.73;;;2.97;;
8857;SDS011;4465;50.904;4.696;2022-08-11T10:14:41;6.72;;;2.75;;
8857;SDS011;4465;50.904;4.696;2022-08-11T10:17:30;11.00;;;3.45;;
8857;SDS011;4465;50.904;4.696;2022-08-11T10:20:02;7.68;;;2.97;;
8857;SDS011;4465;50.904;4.696;2022-08-11T10:22:33;9.23;;;3.30;;
8857;SDS011;4465;50.904;4.696;2022-08-11T10:25:18;4.72;;;2.80;;
8857;SDS011;4465;50.904;4.696;2022-08-11T10:28:06;5.85;;;2.80;;
8857;SDS011;4465;50.904;4.696;2022-08-11T10:30:34;6.85;;;2.90;;
8857;SDS011;4465;50.904;4.696;2022-08-11T10:33:20;5.22;;;2.85;;
8857;SDS011;4465;50.904;4.696;2022-08-11T10:36:05;11.43;;;3.00;;
8857;SDS011;4465;50.904;4.696;2022-08-11T10:38:33;8.10;;;2.75;;
8857;SDS011;4465;50.904;4.696;2022-08-11T10:41:02;8.73;;;2.78;;
8857;SDS011;4465;50.904;4.696;2022-08-11T10:43:48;5.05;;;2.90;;
8857;SDS011;4465;50.904;4.696;2022-08-11T10:46:16;8.57;;;2.63;;
8857;SDS011;4465;50.904;4.696;2022-08-11T10:49:03;5.68;;;2.67;;
8857;SDS011;4465;50.904;4.696;2022-08-11T10:51:30;6.32;;;2.85;;
8857;SDS011;4465;50.904;4.696;2022-08-11T10:54:16;5.70;;;2.70;;
8857;SDS011;4465;50.904;4.696;2022-08-11T10:57:01;7.05;;;2.40;;
8857;SDS011;4465;50.904;4.696;2022-08-11T10:59:47;4.35;;;2.47;;
8857;SDS011;4465;50.904;4.696;2022-08-11T11:02:13;10.40;;;3.25;;
8857;SDS011;4465;50.904;4.696;2022-08-11T11:07:37;3.67;;;2.47;;
8857;SDS011;4465;50.904;4.696;2022-08-11T11:10:12;4.10;;;2.40;;
8857;SDS011;4465;50.904;4.696;2022-08-11T11:12:40;5.60;;;2.30;;
8857;SDS011;4465;50.904;4.696;2022-08-11T11:15:33;9.95;;;2.55;;
8857;SDS011;4465;50.904;4.696;2022-08-11T11:18:21;5.97;;;2.42;;
8857;SDS011;4465;50.904;4.696;2022-08-11T11:20:59;4.07;;;2.13;;
8857;SDS011;4465;50.904;4.696;2022-08-11T11:23:35;4.07;;;2.38;;
8857;SDS011;4465;50.904;4.696;2022-08-11T11:31:51;2.67;;;2.03;;
8857;SDS011;4465;50.904;4.696;2022-08-11T11:34:41;5.07;;;2.10;;
8857;SDS011;4465;50.904;4.696;2022-08-11T11:37:35;4.10;;;1.95;;
8857;SDS011;4465;50.904;4.696;2022-08-11T11:40:11;3.67;;;1.85;;
8857;SDS011;4465;50.904;4.696;2022-08-11T11:42:39;4.07;;;2.20;;
8857;SDS011;4465;50.904;4.696;2022-08-11T11:45:08;4.60;;;2.00;;
8857;SDS011;4465;50.904;4.696;2022-08-11T11:47:36;8.00;;;1.92;;
8857;SDS011;4465;50.904;4.696;2022-08-11T11:50:06;3.65;;;1.70;;
8857;SDS011;4465;50.904;4.696;2022-08-11T11:52:33;5.35;;;1.90;;
8857;SDS011;4465;50.904;4.696;2022-08-11T11:55:02;5.10;;;2.03;;
8857;SDS011;4465;50.904;4.696;2022-08-11T11:57:32;4.38;;;2.00;;
8857;SDS011;4465;50.904;4.696;2022-08-11T12:00:18;7.05;;;2.03;;
8857;SDS011;4465;50.904;4.696;2022-08-11T12:03:04;6.05;;;2.15;;
8857;SDS011;4465;50.904;4.696;2022-08-11T12:05:34;4.22;;;1.75;;
8857;SDS011;4465;50.904;4.696;2022-08-11T12:08:02;3.22;;;1.90;;
8857;SDS011;4465;50.904;4.696;2022-08-11T12:10:39;8.10;;;1.98;;
8857;SDS011;4465;50.904;4.696;2022-08-11T12:13:13;2.60;;;1.90;;
8857;SDS011;4465;50.904;4.696;2022-08-11T12:15:59;3.03;;;1.95;;
8857;SDS011;4465;50.904;4.696;2022-08-11T12:18:29;5.35;;;1.67;;
8857;SDS011;4465;50.904;4.696;2022-08-11T12:21:02;6.47;;;2.10;;
8857;SDS011;4465;50.904;4.696;2022-08-11T12:23:30;4.30;;;1.70;;
8857;SDS011;4465;50.904;4.696;2022-08-11T12:26:17;3.70;;;2.15;;
8857;SDS011;4465;50.904;4.696;2022-08-11T12:29:04;4.78;;;1.90;;
8857;SDS011;4465;50.904;4.696;2022-08-11T12:31:37;4.30;;;1.95;;
8857;SDS011;4465;50.904;4.696;2022-08-11T12:34:24;6.82;;;2.22;;
8857;SDS011;4465;50.904;4.696;2022-08-11T12:36:54;6.03;;;1.95;;
8857;SDS011;4465;50.904;4.696;2022-08-11T12:39:23;3.78;;;1.60;;
8857;SDS011;4465;50.904;4.696;2022-08-11T12:42:10;4.20;;;1.92;;
8857;SDS011;4465;50.904;4.696;2022-08-11T12:44:59;10.65;;;2.25;;
8857;SDS011;4465;50.904;4.696;2022-08-11T12:47:49;9.00;;;1.92;;
8857;SDS011;4465;50.904;4.696;2022-08-11T12:50:35;3.00;;;1.95;;
8857;SDS011;4465;50.904;4.696;2022-08-11T12:53:28;4.13;;;1.60;;
8857;SDS011;4465;50.904;4.696;2022-08-11T12:56:00;4.38;;;1.90;;
8857;SDS011;4465;50.904;4.696;2022-08-11T12:58:49;9.18;;;1.92;;
8857;SDS011;4465;50.904;4.696;2022-08-11T13:01:17;3.22;;;2.05;;
8857;SDS011;4465;50.904;4.696;2022-08-11T13:04:03;3.42;;;2.00;;
8857;SDS011;4465;50.904;4.696;2022-08-11T13:06:48;3.75;;;1.90;;
8857;SDS011;4465;50.904;4.696;2022-08-11T13:09:15;7.15;;;2.05;;
8857;SDS011;4465;50.904;4.696;2022-08-11T13:11:42;7.85;;;2.10;;
8857;SDS011;4465;50.904;4.696;2022-08-11T13:14:28;5.22;;;2.38;;
8857;SDS011;4465;50.904;4.696;2022-08-11T13:16:59;5.63;;;2.00;;
8857;SDS011;4465;50.904;4.696;2022-08-11T13:19:44;5.10;;;2.10;;
8857;SDS011;4465;50.904;4.696;2022-08-11T13:22:15;5.50;;;2.47;;
8857;SDS011;4465;50.904;4.696;2022-08-11T13:24:43;4.68;;;2.17;;
8857;SDS011;4465;50.904;4.696;2022-08-11T13:27:14;6.43;;;2.05;;
8857;SDS011;4465;50.904;4.696;2022-08-11T13:29:42;4.78;;;2.00;;
8857;SDS011;4465;50.904;4.696;2022-08-11T13:32:11;3.30;;;2.10;;
8857;SDS011;4465;50.904;4.696;2022-08-11T13:34:40;5.53;;;2.00;;
8857;SDS011;4465;50.904;4.696;2022-08-11T13:37:08;4.78;;;2.10;;
8857;SDS011;4465;50.904;4.696;2022-08-11T13:39:37;3.45;;;1.92;;
8857;SDS011;4465;50.904;4.696;2022-08-11T13:42:11;8.18;;;1.95;;
8857;SDS011;4465;50.904;4.696;2022-08-11T13:44:40;6.15;;;2.10;;
8857;SDS011;4465;50.904;4.696;2022-08-11T13:47:11;4.15;;;2.45;;
8857;SDS011;4465;50.904;4.696;2022-08-11T13:49:39;4.53;;;2.28;;
8857;SDS011;4465;50.904;4.696;2022-08-11T13:52:09;5.25;;;2.20;;
8857;SDS011;4465;50.904;4.696;2022-08-11T13:54:39;10.65;;;2.40;;
8857;SDS011;4465;50.904;4.696;2022-08-11T13:57:07;5.18;;;2.20;;
8857;SDS011;4465;50.904;4.696;2022-08-11T13:59:36;4.50;;;2.30;;
8857;SDS011;4465;50.904;4.696;2022-08-11T14:02:06;4.90;;;2.30;;
8857;SDS011;4465;50.904;4.696;2022-08-11T14:04:47;5.93;;;2.67;;
8857;SDS011;4465;50.904;4.696;2022-08-11T14:07:24;3.30;;;2.30;;
8857;SDS011;4465;50.904;4.696;2022-08-11T14:09:58;4.25;;;2.50;;
8857;SDS011;4465;50.904;4.696;2022-08-11T14:15:21;8.05;;;2.72;;
8857;SDS011;4465;50.904;4.696;2022-08-11T14:18:02;6.78;;;2.42;;
8857;SDS011;4465;50.904;4.696;2022-08-11T14:20:34;5.55;;;2.30;;
8857;SDS011;4465;50.904;4.696;2022-08-11T14:23:34;7.28;;;2.55;;
8857;SDS011;4465;50.904;4.696;2022-08-11T14:26:04;2.80;;;2.42;;
8857;SDS011;4465;50.904;4.696;2022-08-11T14:28:48;5.03;;;2.25;;
8857;SDS011;4465;50.904;4.696;2022-08-11T14:31:17;6.05;;;2.67;;
8857;SDS011;4465;50.904;4.696;2022-08-11T14:36:11;4.38;;;2.60;;
8857;SDS011;4465;50.904;4.696;2022-08-11T14:38:37;6.78;;;2.17;;
8857;SDS011;4465;50.904;4.696;2022-08-11T14:41:05;5.93;;;2.40;;
8857;SDS011;4465;50.904;4.696;2022-08-11T14:43:51;8.77;;;2.55;;
8857;SDS011;4465;50.904;4.696;2022-08-11T14:46:38;4.07;;;2.60;;
8857;SDS011;4465;50.904;4.696;2022-08-11T14:49:24;7.25;;;2.38;;
8857;SDS011;4465;50.904;4.696;2022-08-11T14:51:52;6.97;;;2.30;;
8857;SDS011;4465;50.904;4.696;2022-08-11T14:54:23;7.40;;;2.95;;
8857;SDS011;4465;50.904;4.696;2022-08-11T14:57:10;3.95;;;2.10;;
8857;SDS011;4465;50.904;4.696;2022-08-11T14:59:37;6.93;;;2.47;;
8857;SDS011;4465;50.904;4.696;2022-08-11T15:04:49;2.90;;;2.25;;
8857;SDS011;4465;50.904;4.696;2022-08-11T15:07:16;4.07;;;2.50;;
8857;SDS011;4465;50.904;4.696;2022-08-11T15:09:42;6.00;;;2.95;;
8857;SDS011;4465;50.904;4.696;2022-08-11T15:12:09;4.97;;;2.10;;
8857;SDS011;4465;50.904;4.696;2022-08-11T15:14:46;6.93;;;2.30;;
8857;SDS011;4465;50.904;4.696;2022-08-11T15:17:32;4.25;;;2.25;;
8857;SDS011;4465;50.904;4.696;2022-08-11T15:20:04;4.18;;;2.47;;
8857;SDS011;4465;50.904;4.696;2022-08-11T15:22:51;4.03;;;2.38;;
8857;SDS011;4465;50.904;4.696;2022-08-11T15:25:36;13.52;;;3.08;;
8857;SDS011;4465;50.904;4.696;2022-08-11T15:28:04;3.08;;;1.98;;
8857;SDS011;4465;50.904;4.696;2022-08-11T15:30:51;6.90;;;2.25;;
8857;SDS011;4465;50.904;4.696;2022-08-11T15:33:40;4.95;;;2.30;;
8857;SDS011;4465;50.904;4.696;2022-08-11T15:36:28;6.25;;;2.45;;
8857;SDS011;4465;50.904;4.696;2022-08-11T15:39:20;4.15;;;2.10;;
8857;SDS011;4465;50.904;4.696;2022-08-11T15:41:59;7.35;;;2.17;;
8857;SDS011;4465;50.904;4.696;2022-08-11T15:44:49;8.88;;;2.58;;
8857;SDS011;4465;50.904;4.696;2022-08-11T15:47:41;9.20;;;2.65;;
8857;SDS011;4465;50.904;4.696;2022-08-11T15:50:13;4.20;;;2.38;;
8857;SDS011;4465;50.904;4.696;2022-08-11T15:52:55;7.55;;;2.40;;
8857;SDS011;4465;50.904;4.696;2022-08-11T15:55:43;4.68;;;2.20;;
8857;SDS011;4465;50.904;4.696;2022-08-11T15:58:10;3.63;;;2.22;;
8857;SDS011;4465;50.904;4.696;2022-08-11T16:00:56;5.95;;;2.00;;
8857;SDS011;4465;50.904;4.696;2022-08-11T16:03:44;5.30;;;2.13;;
8857;SDS011;4465;50.904;4.696;2022-08-11T16:06:34;6.03;;;2.10;;
8857;SDS011;4465;50.904;4.696;2022-08-11T16:09:06;5.90;;;2.13;;
8857;SDS011;4465;50.904;4.696;2022-08-11T16:11:34;4.75;;;2.10;;
8857;SDS011;4465;50.904;4.696;2022-08-11T16:16:48;5.57;;;2.38;;
8857;SDS011;4465;50.904;4.696;2022-08-11T16:19:16;3.72;;;2.22;;
8857;SDS011;4465;50.904;4.696;2022-08-11T16:21:46;5.25;;;2.17;;
8857;SDS011;4465;50.904;4.696;2022-08-11T16:24:18;4.47;;;2.10;;
8857;SDS011;4465;50.904;4.696;2022-08-11T16:26:47;4.85;;;2.05;;
8857;SDS011;4465;50.904;4.696;2022-08-11T16:29:15;6.22;;;2.50;;
8857;SDS011;4465;50.904;4.696;2022-08-11T16:31:41;5.43;;;2.40;;
8857;SDS011;4465;50.904;4.696;2022-08-11T16:34:28;5.82;;;2.58;;
8857;SDS011;4465;50.904;4.696;2022-08-11T16:37:14;5.88;;;2.20;;
8857;SDS011;4465;50.904;4.696;2022-08-11T16:40:00;8.30;;;2.42;;
8857;SDS011;4465;50.904;4.696;2022-08-11T16:42:26;3.72;;;2.10;;
8857;SDS011;4465;50.904;4.696;2022-08-11T16:45:11;3.35;;;2.40;;
8857;SDS011;4465;50.904;4.696;2022-08-11T16:47:58;6.15;;;2.70;;
8857;SDS011;4465;50.904;4.696;2022-08-11T16:50:25;7.57;;;2.65;;
8857;SDS011;4465;50.904;4.696;2022-08-11T16:52:54;9.15;;;2.60;;
8857;SDS011;4465;50.904;4.696;2022-08-11T16:55:20;8.90;;;2.47;;
8857;SDS011;4465;50.904;4.696;2022-08-11T16:57:47;7.13;;;2.30;;
8857;SDS011;4465;50.904;4.696;2022-08-11T17:00:34;5.40;;;2.30;;
8857;SDS011;4465;50.904;4.696;2022-08-11T17:03:04;5.50;;;2.70;;
8857;SDS011;4465;50.904;4.696;2022-08-11T17:05:50;4.68;;;2.33;;
8857;SDS011;4465;50.904;4.696;2022-08-11T17:08:46;4.25;;;2.40;;
8857;SDS011;4465;50.904;4.696;2022-08-11T17:11:45;10.07;;;2.45;;
8857;SDS011;4465;50.904;4.696;2022-08-11T17:14:40;3.65;;;2.45;;
8857;SDS011;4465;50.904;4.696;2022-08-11T17:17:11;4.30;;;2.08;;
8857;SDS011;4465;50.904;4.696;2022-08-11T17:19:46;4.57;;;2.03;;
8857;SDS011;4465;50.904;4.696;2022-08-11T17:22:14;7.75;;;2.20;;
8857;SDS011;4465;50.904;4.696;2022-08-11T17:25:02;6.00;;;2.58;;
8857;SDS011;4465;50.904;4.696;2022-08-11T17:27:30;7.35;;;2.78;;
8857;SDS011;4465;50.904;4.696;2022-08-11T17:29:59;10.07;;;2.70;;
8857;SDS011;4465;50.904;4.696;2022-08-11T17:32:36;4.30;;;2.47;;
8857;SDS011;4465;50.904;4.696;2022-08-11T17:35:31;9.95;;;2.55;;
8857;SDS011;4465;50.904;4.696;2022-08-11T17:38:15;4.15;;;2.78;;
8857;SDS011;4465;50.904;4.696;2022-08-11T17:40:53;4.95;;;2.65;;
8857;SDS011;4465;50.904;4.696;2022-08-11T17:43:40;8.07;;;2.72;;
8857;SDS011;4465;50.904;4.696;2022-08-11T17:46:25;5.90;;;2.38;;
8857;SDS011;4465;50.904;4.696;2022-08-11T17:49:11;7.25;;;2.60;;
8857;SDS011;4465;50.904;4.696;2022-08-11T17:51:43;8.52;;;2.50;;
8857;SDS011;4465;50.904;4.696;2022-08-11T17:54:31;5.95;;;2.80;;
8857;SDS011;4465;50.904;4.696;2022-08-11T17:57:17;8.52;;;2.70;;
8857;SDS011;4465;50.904;4.696;2022-08-11T18:00:05;6.35;;;2.60;;
8857;SDS011;4465;50.904;4.696;2022-08-11T18:02:32;4.25;;;2.40;;
8857;SDS011;4465;50.904;4.696;2022-08-11T18:05:22;4.23;;;2.53;;
8857;SDS011;4465;50.904;4.696;2022-08-11T18:07:52;8.00;;;2.88;;
8857;SDS011;4465;50.904;4.696;2022-08-11T18:10:39;6.10;;;2.60;;
8857;SDS011;4465;50.904;4.696;2022-08-11T18:13:25;5.53;;;2.50;;
8857;SDS011;4465;50.904;4.696;2022-08-11T18:16:12;5.47;;;2.58;;
8857;SDS011;4465;50.904;4.696;2022-08-11T18:18:57;7.05;;;2.92;;
8857;SDS011;4465;50.904;4.696;2022-08-11T18:21:43;4.57;;;2.58;;
8857;SDS011;4465;50.904;4.696;2022-08-11T18:24:31;4.13;;;2.30;;
8857;SDS011;4465;50.904;4.696;2022-08-11T18:27:22;6.35;;;2.50;;
8857;SDS011;4465;50.904;4.696;2022-08-11T18:30:10;10.27;;;2.75;;
8857;SDS011;4465;50.904;4.696;2022-08-11T18:32:58;5.15;;;2.97;;
8857;SDS011;4465;50.904;4.696;2022-08-11T18:35:52;8.25;;;2.75;;
8857;SDS011;4465;50.904;4.696;2022-08-11T18:38:40;7.03;;;2.72;;
8857;SDS011;4465;50.904;4.696;2022-08-11T18:41:29;8.95;;;2.63;;
8857;SDS011;4465;50.904;4.696;2022-08-11T18:44:21;6.20;;;2.58;;
8857;SDS011;4465;50.904;4.696;2022-08-11T18:47:12;9.23;;;2.50;;
8857;SDS011;4465;50.904;4.696;2022-08-11T18:49:59;5.50;;;2.47;;
8857;SDS011;4465;50.904;4.696;2022-08-11T18:52:50;5.38;;;2.60;;
8857;SDS011;4465;50.904;4.696;2022-08-11T18:55:36;7.40;;;3.08;;
8857;SDS011;4465;50.904;4.696;2022-08-11T18:58:22;9.40;;;3.25;;
8857;SDS011;4465;50.904;4.696;2022-08-11T19:01:14;6.75;;;3.20;;
8857;SDS011;4465;50.904;4.696;2022-08-11T19:04:03;6.10;;;2.78;;
8857;SDS011;4465;50.904;4.696;2022-08-11T19:06:52;7.88;;;3.05;;
8857;SDS011;4465;50.904;4.696;2022-08-11T19:09:43;5.65;;;2.85;;
8857;SDS011;4465;50.904;4.696;2022-08-11T19:12:30;7.22;;;3.20;;
8857;SDS011;4465;50.904;4.696;2022-08-11T19:15:18;6.72;;;3.13;;
8857;SDS011;4465;50.904;4.696;2022-08-11T19:18:04;6.40;;;2.97;;
8857;SDS011;4465;50.904;4.696;2022-08-11T19:20:50;5.43;;;2.97;;
8857;SDS011;4465;50.904;4.696;2022-08-11T19:23:41;19.33;;;3.10;;
8857;SDS011;4465;50.904;4.696;2022-08-11T19:26:30;5.57;;;2.97;;
8857;SDS011;4465;50.904;4.696;2022-08-11T19:29:16;7.10;;;2.83;;
8857;SDS011;4465;50.904;4.696;2022-08-11T19:32:03;8.38;;;3.10;;
8857;SDS011;4465;50.904;4.696;2022-08-11T19:34:48;4.90;;;3.00;;
8857;SDS011;4465;50.904;4.696;2022-08-11T19:37:35;7.18;;;3.38;;
8857;SDS011;4465;50.904;4.696;2022-08-11T19:40:21;9.20;;;3.17;;
8857;SDS011;4465;50.904;4.696;2022-08-11T19:43:07;6.40;;;3.17;;
8857;SDS011;4465;50.904;4.696;2022-08-11T19:45:54;7.43;;;2.97;;
8857;SDS011;4465;50.904;4.696;2022-08-11T19:48:45;5.30;;;3.33;;
8857;SDS011;4465;50.904;4.696;2022-08-11T19:51:34;8.18;;;3.22;;